sensor_id;sensor_type;location;lat;lon;timestamp;pressure;altitude;pressure_sealevel;temperature;humidity
49044;BME280;34860;48.066;14.124;2022-07-06T00:01:36;96911.91;;;17.93;62.74
49044;BME280;34860;48.066;14.124;2022-07-06T00:04:25;96915.03;;;17.95;62.64
49044;BME280;34860;48.066;14.124;2022-07-06T00:07:14;96917.84;;;17.95;62.80
49044;BME280;34860;48.066;14.124;2022-07-06T00:10:03;96915.03;;;17.95;62.71
49044;BME280;34860;48.066;14.124;2022-07-06T00:12:52;96921.16;;;17.93;62.86
49044;BME280;34860;48.066;14.124;2022-07-06T00:15:41;96918.50;;;17.90;62.82
49044;BME280;34860;48.066;14.124;2022-07-06T00:18:31;96926.16;;;17.89;62.91
49044;BME280;34860;48.066;14.124;2022-07-06T00:21:20;96924.59;;;17.88;62.70
49044;BME280;34860;48.066;14.124;2022-07-06T00:24:09;96930.75;;;17.77;63.10
49044;BME280;34860;48.066;14.124;2022-07-06T00:26:58;96915.38;;;17.64;63.45
49044;BME280;34860;48.066;14.124;2022-07-06T00:29:47;96915.34;;;17.49;63.24
49044;BME280;34860;48.066;14.124;2022-07-06T00:32:36;96914.28;;;17.37;63.37
49044;BME280;34860;48.066;14.124;2022-07-06T00:35:26;96916.34;;;17.36;63.38
49044;BME280;34860;48.066;14.124;2022-07-06T00:38:15;96924.94;;;17.33;63.20
49044;BME280;34860;48.066;14.124;2022-07-06T00:41:04;96915.59;;;17.27;63.13
49044;BME280;34860;48.066;14.124;2022-07-06T00:43:54;96933.22;;;17.27;63.23
49044;BME280;34860;48.066;14.124;2022-07-06T00:46:43;96928.09;;;17.25;63.23
49044;BME280;34860;48.066;14.124;2022-07-06T00:49:32;96925.63;;;17.18;63.41
49044;BME280;34860;48.066;14.124;2022-07-06T00:52:40;96926.47;;;17.00;64.09
49044;BME280;34860;48.066;14.124;2022-07-06T00:55:31;96927.59;;;16.84;64.44
49044;BME280;34860;48.066;14.124;2022-07-06T00:58:20;96931.88;;;16.70;64.69
49044;BME280;34860;48.066;14.124;2022-07-06T01:01:09;96934.06;;;16.57;64.89
49044;BME280;34860;48.066;14.124;2022-07-06T01:03:58;96934.25;;;16.44;65.13
49044;BME280;34860;48.066;14.124;2022-07-06T01:06:48;96928.63;;;16.44;65.23
49044;BME280;34860;48.066;14.124;2022-07-06T01:09:38;96932.72;;;16.34;65.37
49044;BME280;34860;48.066;14.124;2022-07-06T01:12:28;96932.25;;;16.26;65.41
49044;BME280;34860;48.066;14.124;2022-07-06T01:15:19;96927.72;;;16.29;65.48
49044;BME280;34860;48.066;14.124;2022-07-06T01:18:10;96942.06;;;16.31;65.38
49044;BME280;34860;48.066;14.124;2022-07-06T01:21:11;96942.06;;;16.31;65.38
49044;BME280;34860;48.066;14.124;2022-07-06T01:24:01;96946.09;;;16.39;64.77
49044;BME280;34860;48.066;14.124;2022-07-06T01:26:50;96945.16;;;16.42;64.95
49044;BME280;34860;48.066;14.124;2022-07-06T01:29:39;96943.00;;;16.37;64.96
49044;BME280;34860;48.066;14.124;2022-07-06T01:32:28;96947.66;;;16.40;64.89
49044;BME280;34860;48.066;14.124;2022-07-06T01:35:17;96947.81;;;16.46;64.88
49044;BME280;34860;48.066;14.124;2022-07-06T01:38:07;96948.56;;;16.56;64.46
49044;BME280;34860;48.066;14.124;2022-07-06T01:40:56;96944.81;;;16.59;64.58
49044;BME280;34860;48.066;14.124;2022-07-06T01:43:45;96948.72;;;16.52;64.68
49044;BME280;34860;48.066;14.124;2022-07-06T01:46:35;96952.94;;;16.57;64.48
49044;BME280;34860;48.066;14.124;2022-07-06T01:49:23;96944.06;;;16.58;64.60
49044;BME280;34860;48.066;14.124;2022-07-06T01:52:13;96951.53;;;16.61;64.50
49044;BME280;34860;48.066;14.124;2022-07-06T01:55:04;96944.34;;;16.60;64.50
49044;BME280;34860;48.066;14.124;2022-07-06T01:57:55;96951.66;;;16.67;64.60
49044;BME280;34860;48.066;14.124;2022-07-06T02:00:44;96953.25;;;16.59;64.63
49044;BME280;34860;48.066;14.124;2022-07-06T02:03:33;96961.47;;;16.62;64.70
49044;BME280;34860;48.066;14.124;2022-07-06T02:06:22;96951.81;;;16.63;64.25
49044;BME280;34860;48.066;14.124;2022-07-06T02:09:11;96956.66;;;16.63;64.25
49044;BME280;34860;48.066;14.124;2022-07-06T02:12:02;96951.06;;;16.63;64.11
49044;BME280;34860;48.066;14.124;2022-07-06T02:14:51;96957.91;;;16.62;64.27
49044;BME280;34860;48.066;14.124;2022-07-06T02:17:39;96950.25;;;16.62;64.04
49044;BME280;34860;48.066;14.124;2022-07-06T02:20:28;96952.00;;;16.60;64.13
49044;BME280;34860;48.066;14.124;2022-07-06T02:23:17;96947.31;;;16.57;64.33
49044;BME280;34860;48.066;14.124;2022-07-06T02:26:07;96950.91;;;16.57;64.39
49044;BME280;34860;48.066;14.124;2022-07-06T02:28:58;96949.97;;;16.60;64.28
49044;BME280;34860;48.066;14.124;2022-07-06T02:31:47;96945.13;;;16.61;64.35
49044;BME280;34860;48.066;14.124;2022-07-06T02:34:36;96952.13;;;16.65;64.34
49044;BME280;34860;48.066;14.124;2022-07-06T02:37:25;96948.84;;;16.67;64.14
49044;BME280;34860;48.066;14.124;2022-07-06T02:40:14;96946.69;;;16.62;64.43
49044;BME280;34860;48.066;14.124;2022-07-06T02:43:03;96944.06;;;16.58;64.65
49044;BME280;34860;48.066;14.124;2022-07-06T02:45:55;96946.84;;;16.58;64.67
49044;BME280;34860;48.066;14.124;2022-07-06T02:48:46;96951.06;;;16.63;64.59
49044;BME280;34860;48.066;14.124;2022-07-06T02:51:36;96949.03;;;16.63;64.46
49044;BME280;34860;48.066;14.124;2022-07-06T02:54:25;96955.72;;;16.66;64.34
49044;BME280;34860;48.066;14.124;2022-07-06T02:57:14;96945.75;;;16.65;64.40
49044;BME280;34860;48.066;14.124;2022-07-06T03:00:05;96939.97;;;16.68;64.54
49044;BME280;34860;48.066;14.124;2022-07-06T03:02:56;96938.44;;;16.67;64.53
49044;BME280;34860;48.066;14.124;2022-07-06T03:05:45;96940.13;;;16.74;64.18
49044;BME280;34860;48.066;14.124;2022-07-06T03:08:38;96944.00;;;16.77;64.15
49044;BME280;34860;48.066;14.124;2022-07-06T03:11:27;96949.28;;;16.84;63.91
49044;BME280;34860;48.066;14.124;2022-07-06T03:14:16;96938.22;;;16.89;63.82
49044;BME280;34860;48.066;14.124;2022-07-06T03:17:08;96942.09;;;16.92;63.69
49044;BME280;34860;48.066;14.124;2022-07-06T03:19:59;96938.22;;;16.89;63.53
49044;BME280;34860;48.066;14.124;2022-07-06T03:22:48;96943.81;;;16.89;63.64
49044;BME280;34860;48.066;14.124;2022-07-06T03:25:36;96942.41;;;16.94;63.58
49044;BME280;34860;48.066;14.124;2022-07-06T03:28:26;96945.53;;;16.96;63.44
49044;BME280;34860;48.066;14.124;2022-07-06T03:31:15;96944.59;;;16.99;63.30
49044;BME280;34860;48.066;14.124;2022-07-06T03:34:05;96942.56;;;17.00;63.28
49044;BME280;34860;48.066;14.124;2022-07-06T03:36:56;96945.66;;;17.02;63.26
49044;BME280;34860;48.066;14.124;2022-07-06T03:39:45;96943.16;;;17.04;63.22
49044;BME280;34860;48.066;14.124;2022-07-06T03:42:36;96944.25;;;17.06;63.22
49044;BME280;34860;48.066;14.124;2022-07-06T03:45:28;96947.66;;;17.11;63.15
49044;BME280;34860;48.066;14.124;2022-07-06T03:48:19;96950.00;;;17.12;63.04
49044;BME280;34860;48.066;14.124;2022-07-06T03:51:08;96946.41;;;17.12;63.00
49044;BME280;34860;48.066;14.124;2022-07-06T03:53:59;96944.38;;;17.12;62.97
49044;BME280;34860;48.066;14.124;2022-07-06T03:56:48;96945.16;;;17.13;63.03
49044;BME280;34860;48.066;14.124;2022-07-06T03:59:38;96942.06;;;17.11;62.82
49044;BME280;34860;48.066;14.124;2022-07-06T04:02:28;96948.13;;;17.09;63.04
49044;BME280;34860;48.066;14.124;2022-07-06T04:05:16;96945.34;;;17.09;63.13
49044;BME280;34860;48.066;14.124;2022-07-06T04:08:10;96948.13;;;17.09;62.90
49044;BME280;34860;48.066;14.124;2022-07-06T04:11:05;96948.63;;;17.08;62.84
49044;BME280;34860;48.066;14.124;2022-07-06T04:13:55;96949.84;;;17.06;62.78
49044;BME280;34860;48.066;14.124;2022-07-06T04:16:45;96953.91;;;17.05;62.75
49044;BME280;34860;48.066;14.124;2022-07-06T04:19:34;96952.41;;;16.95;63.11
49044;BME280;34860;48.066;14.124;2022-07-06T04:22:23;96963.81;;;16.92;63.19
49044;BME280;34860;48.066;14.124;2022-07-06T04:25:12;96967.56;;;16.88;63.42
49044;BME280;34860;48.066;14.124;2022-07-06T04:28:03;96962.69;;;16.89;63.41
49044;BME280;34860;48.066;14.124;2022-07-06T04:30:54;96959.72;;;16.93;63.46
49044;BME280;34860;48.066;14.124;2022-07-06T04:33:44;96963.63;;;16.95;63.30
49044;BME280;34860;48.066;14.124;2022-07-06T04:36:33;96960.97;;;17.01;63.41
49044;BME280;34860;48.066;14.124;2022-07-06T04:39:22;96961.84;;;17.07;63.13
49044;BME280;34860;48.066;14.124;2022-07-06T04:42:11;96968.50;;;17.28;62.83
49044;BME280;34860;48.066;14.124;2022-07-06T04:45:01;96973.13;;;18.37;60.73
49044;BME280;34860;48.066;14.124;2022-07-06T04:47:50;96982.03;;;19.19;58.76
49044;BME280;34860;48.066;14.124;2022-07-06T04:50:39;96984.13;;;19.39;58.18
49044;BME280;34860;48.066;14.124;2022-07-06T04:53:33;96986.88;;;19.19;58.49
49044;BME280;34860;48.066;14.124;2022-07-06T04:56:22;96986.06;;;18.59;59.69
49044;BME280;34860;48.066;14.124;2022-07-06T04:59:11;96986.38;;;18.22;60.89
49044;BME280;34860;48.066;14.124;2022-07-06T05:02:01;96983.50;;;18.46;60.80
49044;BME280;34860;48.066;14.124;2022-07-06T05:04:50;96989.53;;;19.58;57.97
49044;BME280;34860;48.066;14.124;2022-07-06T05:07:40;96998.72;;;21.02;54.31
49044;BME280;34860;48.066;14.124;2022-07-06T05:10:29;96996.03;;;21.89;52.00
49044;BME280;34860;48.066;14.124;2022-07-06T05:13:19;96989.97;;;22.67;50.09
49044;BME280;34860;48.066;14.124;2022-07-06T05:16:09;97000.34;;;23.16;48.90
49044;BME280;34860;48.066;14.124;2022-07-06T05:19:02;96989.00;;;23.27;48.86
49044;BME280;34860;48.066;14.124;2022-07-06T05:21:52;96999.06;;;23.23;49.51
49044;BME280;34860;48.066;14.124;2022-07-06T05:24:41;96992.31;;;22.92;50.56
49044;BME280;34860;48.066;14.124;2022-07-06T05:27:30;96988.69;;;22.85;51.26
49044;BME280;34860;48.066;14.124;2022-07-06T05:30:19;96999.31;;;23.42;50.10
49044;BME280;34860;48.066;14.124;2022-07-06T05:33:09;97006.78;;;23.67;49.66
49044;BME280;34860;48.066;14.124;2022-07-06T05:35:59;97014.53;;;23.44;50.08
49044;BME280;34860;48.066;14.124;2022-07-06T05:38:48;97009.44;;;22.43;52.31
49044;BME280;34860;48.066;14.124;2022-07-06T05:41:37;97011.94;;;21.17;55.49
49044;BME280;34860;48.066;14.124;2022-07-06T05:44:26;97007.94;;;20.30;57.91
49044;BME280;34860;48.066;14.124;2022-07-06T05:47:15;97014.97;;;19.99;58.95
49044;BME280;34860;48.066;14.124;2022-07-06T05:50:21;97015.13;;;19.75;59.68
49044;BME280;34860;48.066;14.124;2022-07-06T05:53:15;97015.28;;;19.66;60.12
49044;BME280;34860;48.066;14.124;2022-07-06T05:56:07;97018.59;;;19.64;60.20
49044;BME280;34860;48.066;14.124;2022-07-06T05:58:58;97028.59;;;19.65;60.42
49044;BME280;34860;48.066;14.124;2022-07-06T06:01:46;97021.19;;;19.68;60.48
49044;BME280;34860;48.066;14.124;2022-07-06T06:04:39;97023.53;;;19.69;60.32
49044;BME280;34860;48.066;14.124;2022-07-06T06:07:28;97030.34;;;19.77;60.28
49044;BME280;34860;48.066;14.124;2022-07-06T06:10:20;97023.00;;;19.86;60.07
49044;BME280;34860;48.066;14.124;2022-07-06T06:13:13;97019.22;;;19.89;60.30
49044;BME280;34860;48.066;14.124;2022-07-06T06:16:04;97021.06;;;19.92;60.16
49044;BME280;34860;48.066;14.124;2022-07-06T06:18:54;97025.72;;;19.95;60.21
49044;BME280;34860;48.066;14.124;2022-07-06T06:21:43;97025.78;;;20.01;60.10
49044;BME280;34860;48.066;14.124;2022-07-06T06:24:32;97030.25;;;20.07;60.09
49044;BME280;34860;48.066;14.124;2022-07-06T06:27:22;97027.75;;;20.15;60.07
49044;BME280;34860;48.066;14.124;2022-07-06T06:30:12;97030.66;;;20.21;60.00
49044;BME280;34860;48.066;14.124;2022-07-06T06:33:08;97028.69;;;20.27;59.85
49044;BME280;34860;48.066;14.124;2022-07-06T06:35:57;97027.56;;;20.39;59.87
49044;BME280;34860;48.066;14.124;2022-07-06T06:38:46;97030.53;;;20.50;59.59
49044;BME280;34860;48.066;14.124;2022-07-06T06:41:37;97037.28;;;20.59;59.59
49044;BME280;34860;48.066;14.124;2022-07-06T06:44:27;97034.13;;;20.72;59.57
49044;BME280;34860;48.066;14.124;2022-07-06T06:47:16;97038.28;;;20.76;59.52
49044;BME280;34860;48.066;14.124;2022-07-06T06:50:07;97041.66;;;20.80;59.44
49044;BME280;34860;48.066;14.124;2022-07-06T06:52:55;97041.22;;;20.88;59.52
49044;BME280;34860;48.066;14.124;2022-07-06T06:55:44;97046.41;;;20.95;59.35
49044;BME280;34860;48.066;14.124;2022-07-06T06:58:33;97046.72;;;20.97;59.25
49044;BME280;34860;48.066;14.124;2022-07-06T07:01:38;97043.41;;;20.98;59.24
49044;BME280;34860;48.066;14.124;2022-07-06T07:04:27;97044.50;;;21.07;59.15
49044;BME280;34860;48.066;14.124;2022-07-06T07:07:16;97045.38;;;21.18;59.19
49044;BME280;34860;48.066;14.124;2022-07-06T07:10:06;97044.38;;;21.21;59.05
49044;BME280;34860;48.066;14.124;2022-07-06T07:12:55;97046.44;;;21.21;59.17
49044;BME280;34860;48.066;14.124;2022-07-06T07:15:44;97047.47;;;21.23;59.17
49044;BME280;34860;48.066;14.124;2022-07-06T07:18:34;97058.09;;;21.34;59.07
49044;BME280;34860;48.066;14.124;2022-07-06T07:21:23;97057.94;;;21.44;58.97
49044;BME280;34860;48.066;14.124;2022-07-06T07:24:12;97045.34;;;21.45;58.95
49044;BME280;34860;48.066;14.124;2022-07-06T07:27:01;97052.84;;;21.48;58.96
49044;BME280;34860;48.066;14.124;2022-07-06T07:29:49;97054.19;;;21.52;58.95
49044;BME280;34860;48.066;14.124;2022-07-06T07:32:38;97052.94;;;21.59;58.84
49044;BME280;34860;48.066;14.124;2022-07-06T07:35:29;97049.91;;;21.68;58.84
49044;BME280;34860;48.066;14.124;2022-07-06T07:38:18;97054.13;;;21.84;58.65
49044;BME280;34860;48.066;14.124;2022-07-06T07:41:07;97052.91;;;21.91;58.61
49044;BME280;34860;48.066;14.124;2022-07-06T07:43:58;97052.16;;;21.96;58.44
49044;BME280;34860;48.066;14.124;2022-07-06T07:46:47;97054.25;;;22.01;58.43
49044;BME280;34860;48.066;14.124;2022-07-06T07:49:36;97051.22;;;22.10;58.18
49044;BME280;34860;48.066;14.124;2022-07-06T07:52:26;97050.47;;;22.16;57.94
49044;BME280;34860;48.066;14.124;2022-07-06T07:55:15;97044.84;;;22.21;58.48
49044;BME280;34860;48.066;14.124;2022-07-06T07:58:24;97049.50;;;22.24;58.12
49044;BME280;34860;48.066;14.124;2022-07-06T08:01:13;97033.59;;;22.33;57.91
49044;BME280;34860;48.066;14.124;2022-07-06T08:04:02;97040.59;;;22.43;57.84
49044;BME280;34860;48.066;14.124;2022-07-06T08:06:51;97039.06;;;22.47;57.76
49044;BME280;34860;48.066;14.124;2022-07-06T08:09:43;97040.41;;;22.58;57.58
49044;BME280;34860;48.066;14.124;2022-07-06T08:12:32;97042.72;;;22.65;57.49
49044;BME280;34860;48.066;14.124;2022-07-06T08:15:21;97046.88;;;22.70;57.47
49044;BME280;34860;48.066;14.124;2022-07-06T08:18:10;97040.97;;;22.79;57.68
49044;BME280;34860;48.066;14.124;2022-07-06T08:20:59;97047.94;;;22.89;57.45
49044;BME280;34860;48.066;14.124;2022-07-06T08:24:08;97037.41;;;22.95;57.41
49044;BME280;34860;48.066;14.124;2022-07-06T08:26:58;97034.59;;;23.01;57.25
49044;BME280;34860;48.066;14.124;2022-07-06T08:29:47;97041.84;;;23.08;57.30
49044;BME280;34860;48.066;14.124;2022-07-06T08:32:37;97048.81;;;23.24;56.93
49044;BME280;34860;48.066;14.124;2022-07-06T08:35:46;97047.56;;;23.36;57.01
49044;BME280;34860;48.066;14.124;2022-07-06T08:38:35;97046.25;;;23.43;56.68
49044;BME280;34860;48.066;14.124;2022-07-06T08:41:26;97042.91;;;23.50;56.41
49044;BME280;34860;48.066;14.124;2022-07-06T08:44:17;97052.97;;;23.51;56.42
49044;BME280;34860;48.066;14.124;2022-07-06T08:47:06;97047.03;;;23.60;56.48
49044;BME280;34860;48.066;14.124;2022-07-06T08:50:03;97057.84;;;23.73;56.40
49044;BME280;34860;48.066;14.124;2022-07-06T08:52:53;97053.47;;;23.78;56.10
49044;BME280;34860;48.066;14.124;2022-07-06T08:55:42;97055.28;;;23.86;56.30
49044;BME280;34860;48.066;14.124;2022-07-06T08:58:31;97052.19;;;23.96;56.18
49044;BME280;34860;48.066;14.124;2022-07-06T09:01:22;97045.94;;;24.03;56.05
49044;BME280;34860;48.066;14.124;2022-07-06T09:04:12;97055.25;;;24.15;56.17
49044;BME280;34860;48.066;14.124;2022-07-06T09:07:02;97052.88;;;24.24;55.76
49044;BME280;34860;48.066;14.124;2022-07-06T09:09:52;97046.16;;;24.22;55.80
49044;BME280;34860;48.066;14.124;2022-07-06T09:12:41;97050.56;;;24.17;56.00
49044;BME280;34860;48.066;14.124;2022-07-06T09:15:30;97045.16;;;24.19;55.94
49044;BME280;34860;48.066;14.124;2022-07-06T09:18:22;97042.81;;;24.23;55.96
49044;BME280;34860;48.066;14.124;2022-07-06T09:21:11;97043.84;;;24.26;55.84
49044;BME280;34860;48.066;14.124;2022-07-06T09:24:01;97050.53;;;24.34;56.10
49044;BME280;34860;48.066;14.124;2022-07-06T09:26:51;97058.00;;;24.43;55.86
49044;BME280;34860;48.066;14.124;2022-07-06T09:29:42;97053.03;;;24.49;55.69
49044;BME280;34860;48.066;14.124;2022-07-06T09:32:38;97053.56;;;24.53;55.46
49044;BME280;34860;48.066;14.124;2022-07-06T09:35:29;97041.66;;;24.55;55.42
49044;BME280;34860;48.066;14.124;2022-07-06T09:38:18;97053.03;;;24.55;55.68
49044;BME280;34860;48.066;14.124;2022-07-06T09:41:07;97054.56;;;24.61;55.41
49044;BME280;34860;48.066;14.124;2022-07-06T09:43:57;97039.31;;;24.70;55.64
49044;BME280;34860;48.066;14.124;2022-07-06T09:46:47;97044.00;;;24.62;55.55
49044;BME280;34860;48.066;14.124;2022-07-06T09:49:36;97051.75;;;24.56;55.77
49044;BME280;34860;48.066;14.124;2022-07-06T09:52:27;97040.38;;;24.61;55.47
49044;BME280;34860;48.066;14.124;2022-07-06T09:55:15;97046.81;;;24.68;55.53
49044;BME280;34860;48.066;14.124;2022-07-06T09:58:04;97054.28;;;24.76;55.41
49044;BME280;34860;48.066;14.124;2022-07-06T10:00:53;97050.09;;;24.83;55.47
49044;BME280;34860;48.066;14.124;2022-07-06T10:03:42;97052.09;;;24.94;55.03
49044;BME280;34860;48.066;14.124;2022-07-06T10:06:31;97052.88;;;24.94;54.98
49044;BME280;34860;48.066;14.124;2022-07-06T10:09:23;97049.53;;;24.90;54.95
49044;BME280;34860;48.066;14.124;2022-07-06T10:12:14;97044.13;;;24.81;55.11
49044;BME280;34860;48.066;14.124;2022-07-06T10:15:05;97052.25;;;24.60;55.34
49044;BME280;34860;48.066;14.124;2022-07-06T10:17:55;97049.69;;;24.51;55.31
49044;BME280;34860;48.066;14.124;2022-07-06T10:20:45;97048.91;;;24.61;55.17
49044;BME280;34860;48.066;14.124;2022-07-06T10:23:34;97049.06;;;24.80;54.92
49044;BME280;34860;48.066;14.124;2022-07-06T10:26:25;97053.09;;;24.96;54.82
49044;BME280;34860;48.066;14.124;2022-07-06T10:29:14;97050.47;;;25.04;54.59
49044;BME280;34860;48.066;14.124;2022-07-06T10:32:04;97047.22;;;24.89;54.64
49044;BME280;34860;48.066;14.124;2022-07-06T10:34:53;97046.97;;;24.87;54.66
49044;BME280;34860;48.066;14.124;2022-07-06T10:37:42;97041.78;;;24.91;54.61
49044;BME280;34860;48.066;14.124;2022-07-06T10:40:40;97046.94;;;24.92;54.59
49044;BME280;34860;48.066;14.124;2022-07-06T10:43:48;97052.94;;;24.83;54.59
49044;BME280;34860;48.066;14.124;2022-07-06T10:46:38;97052.25;;;24.65;55.04
49044;BME280;34860;48.066;14.124;2022-07-06T10:49:27;97046.22;;;24.80;54.93
49044;BME280;34860;48.066;14.124;2022-07-06T10:52:52;97044.22;;;25.11;54.22
49044;BME280;34860;48.066;14.124;2022-07-06T10:55:43;97045.47;;;25.16;54.23
49044;BME280;34860;48.066;14.124;2022-07-06T10:58:46;97044.16;;;25.28;54.21
49044;BME280;34860;48.066;14.124;2022-07-06T11:01:37;97043.81;;;25.37;53.77
49044;BME280;34860;48.066;14.124;2022-07-06T11:04:31;97045.59;;;25.41;53.94
49044;BME280;34860;48.066;14.124;2022-07-06T11:07:21;97047.59;;;25.51;53.52
49044;BME280;34860;48.066;14.124;2022-07-06T11:10:09;97045.63;;;25.71;53.67
49044;BME280;34860;48.066;14.124;2022-07-06T11:12:58;97041.53;;;25.91;53.44
49044;BME280;34860;48.066;14.124;2022-07-06T11:15:48;97045.38;;;25.99;53.78
49044;BME280;34860;48.066;14.124;2022-07-06T11:18:45;97046.69;;;25.98;53.06
49044;BME280;34860;48.066;14.124;2022-07-06T11:21:46;97043.31;;;25.69;53.54
49044;BME280;34860;48.066;14.124;2022-07-06T11:24:38;97039.06;;;25.51;54.14
49044;BME280;34860;48.066;14.124;2022-07-06T11:27:27;97038.81;;;25.49;53.97
49044;BME280;34860;48.066;14.124;2022-07-06T11:30:17;97038.97;;;25.87;53.57
49044;BME280;34860;48.066;14.124;2022-07-06T11:33:06;97037.22;;;26.34;53.09
49044;BME280;34860;48.066;14.124;2022-07-06T11:36:11;97030.50;;;26.56;52.29
49044;BME280;34860;48.066;14.124;2022-07-06T11:39:00;97032.03;;;26.57;52.62
49044;BME280;34860;48.066;14.124;2022-07-06T11:41:49;97037.63;;;26.87;52.58
49044;BME280;34860;48.066;14.124;2022-07-06T11:44:38;97022.28;;;27.09;51.85
49044;BME280;34860;48.066;14.124;2022-07-06T11:47:30;97023.25;;;27.31;51.71
49044;BME280;34860;48.066;14.124;2022-07-06T11:50:20;97018.59;;;27.28;51.73
49044;BME280;34860;48.066;14.124;2022-07-06T11:53:10;97018.63;;;27.09;51.77
49044;BME280;34860;48.066;14.124;2022-07-06T11:56:02;97017.47;;;27.17;51.76
49044;BME280;34860;48.066;14.124;2022-07-06T11:58:52;97023.88;;;27.24;51.55
49044;BME280;34860;48.066;14.124;2022-07-06T12:01:41;97023.94;;;27.18;51.54
49044;BME280;34860;48.066;14.124;2022-07-06T12:04:34;97018.19;;;27.05;52.08
49044;BME280;34860;48.066;14.124;2022-07-06T12:07:23;97020.41;;;27.12;51.57
49044;BME280;34860;48.066;14.124;2022-07-06T12:10:13;97017.22;;;27.34;51.23
49044;BME280;34860;48.066;14.124;2022-07-06T12:13:02;97013.19;;;27.76;51.16
49044;BME280;34860;48.066;14.124;2022-07-06T12:15:52;97021.75;;;27.76;50.93
49044;BME280;34860;48.066;14.124;2022-07-06T12:18:42;97020.56;;;27.19;51.45
49044;BME280;34860;48.066;14.124;2022-07-06T12:21:33;97007.84;;;26.63;52.38
49044;BME280;34860;48.066;14.124;2022-07-06T12:24:26;97002.09;;;26.88;52.27
49044;BME280;34860;48.066;14.124;2022-07-06T12:27:20;97007.41;;;27.49;51.42
49044;BME280;34860;48.066;14.124;2022-07-06T12:30:10;97001.66;;;27.81;50.50
49044;BME280;34860;48.066;14.124;2022-07-06T12:33:14;97010.59;;;28.04;49.72
49044;BME280;34860;48.066;14.124;2022-07-06T12:36:11;97001.28;;;27.58;49.98
49044;BME280;34860;48.066;14.124;2022-07-06T12:39:00;96992.16;;;27.60;50.41
49044;BME280;34860;48.066;14.124;2022-07-06T12:42:01;96993.47;;;28.18;49.88
49044;BME280;34860;48.066;14.124;2022-07-06T12:44:52;97001.91;;;28.63;49.41
49044;BME280;34860;48.066;14.124;2022-07-06T12:47:41;96995.00;;;28.93;49.41
49044;BME280;34860;48.066;14.124;2022-07-06T12:50:46;96996.91;;;29.25;48.91
49044;BME280;34860;48.066;14.124;2022-07-06T12:53:35;97009.00;;;29.52;48.59
49044;BME280;34860;48.066;14.124;2022-07-06T12:56:24;97005.16;;;29.71;48.47
49044;BME280;34860;48.066;14.124;2022-07-06T12:59:21;96989.34;;;29.78;48.28
49044;BME280;34860;48.066;14.124;2022-07-06T13:02:20;96990.25;;;29.51;47.92
49044;BME280;34860;48.066;14.124;2022-07-06T13:05:17;97001.16;;;28.97;48.22
49044;BME280;34860;48.066;14.124;2022-07-06T13:08:06;96998.38;;;28.57;48.81
49044;BME280;34860;48.066;14.124;2022-07-06T13:10:56;96993.25;;;28.90;48.92
49044;BME280;34860;48.066;14.124;2022-07-06T13:13:44;96995.50;;;29.61;47.81
49044;BME280;34860;48.066;14.124;2022-07-06T13:16:34;96989.94;;;29.55;47.75
49044;BME280;34860;48.066;14.124;2022-07-06T13:19:25;96994.75;;;29.60;47.93
49044;BME280;34860;48.066;14.124;2022-07-06T13:22:13;97005.06;;;29.63;47.73
49044;BME280;34860;48.066;14.124;2022-07-06T13:25:03;96987.41;;;28.96;48.22
49044;BME280;34860;48.066;14.124;2022-07-06T13:27:52;96990.31;;;29.17;48.70
49044;BME280;34860;48.066;14.124;2022-07-06T13:30:41;96990.00;;;29.84;47.40
49044;BME280;34860;48.066;14.124;2022-07-06T13:33:31;96986.72;;;30.09;46.61
49044;BME280;34860;48.066;14.124;2022-07-06T13:36:21;96982.34;;;30.15;46.02
49044;BME280;34860;48.066;14.124;2022-07-06T13:39:11;96991.31;;;30.12;45.80
49044;BME280;34860;48.066;14.124;2022-07-06T13:42:00;96986.44;;;30.28;45.77
49044;BME280;34860;48.066;14.124;2022-07-06T13:44:48;96981.16;;;30.39;45.49
49044;BME280;34860;48.066;14.124;2022-07-06T13:47:37;96992.53;;;30.53;45.75
49044;BME280;34860;48.066;14.124;2022-07-06T13:50:26;96984.16;;;31.07;45.32
49044;BME280;34860;48.066;14.124;2022-07-06T13:53:20;96969.84;;;31.68;44.58
49044;BME280;34860;48.066;14.124;2022-07-06T13:56:10;96986.59;;;31.03;45.52
49044;BME280;34860;48.066;14.124;2022-07-06T13:58:59;96989.13;;;30.25;46.09
49044;BME280;34860;48.066;14.124;2022-07-06T14:01:47;96992.25;;;30.06;47.00
49044;BME280;34860;48.066;14.124;2022-07-06T14:04:36;96979.31;;;31.02;46.24
49044;BME280;34860;48.066;14.124;2022-07-06T14:07:25;96980.94;;;31.41;44.79
49044;BME280;34860;48.066;14.124;2022-07-06T14:10:15;96975.22;;;31.87;44.62
49044;BME280;34860;48.066;14.124;2022-07-06T14:13:05;96974.56;;;32.28;44.19
49044;BME280;34860;48.066;14.124;2022-07-06T14:15:55;96977.13;;;32.80;43.54
49044;BME280;34860;48.066;14.124;2022-07-06T14:18:44;96976.50;;;33.22;42.90
49044;BME280;34860;48.066;14.124;2022-07-06T14:21:33;96971.19;;;33.43;43.09
49044;BME280;34860;48.066;14.124;2022-07-06T14:24:22;96966.88;;;33.52;43.21
49044;BME280;34860;48.066;14.124;2022-07-06T14:27:14;96956.25;;;33.37;43.19
49044;BME280;34860;48.066;14.124;2022-07-06T14:30:03;96961.19;;;33.19;43.09
49044;BME280;34860;48.066;14.124;2022-07-06T14:32:52;96956.03;;;33.10;43.20
49044;BME280;34860;48.066;14.124;2022-07-06T14:35:44;96950.66;;;33.39;42.45
49044;BME280;34860;48.066;14.124;2022-07-06T14:38:34;96966.72;;;33.75;42.39
49044;BME280;34860;48.066;14.124;2022-07-06T14:41:23;96958.56;;;34.24;41.57
49044;BME280;34860;48.066;14.124;2022-07-06T14:44:14;96948.47;;;34.33;41.02
49044;BME280;34860;48.066;14.124;2022-07-06T14:47:03;96958.09;;;34.35;40.75
49044;BME280;34860;48.066;14.124;2022-07-06T14:49:52;96960.00;;;34.50;40.55
49044;BME280;34860;48.066;14.124;2022-07-06T14:52:41;96977.03;;;34.91;40.76